Time;durP1;ratioP1;P1;durP2;ratioP2;P2;SDS_P1;SDS_P2;PMS_P1;PMS_P2;Temp;Humidity;BMP_temperature;BMP_pressure;BME280_temperature;BME280_humidity;BME280_pressure;Samples;Min_cycle;Max_cycle;Signal;HPM_P1;HPM_P2
2023/03/23 00:00:36;;;;;;;5.47;2.95;;;10.10;99.90;;;;;;5034145;28;20011;-72
2023/03/23 00:03:01;;;;;;;4.63;2.58;;;10.10;99.90;;;;;;5052047;28;20496;-71
2023/03/23 00:05:28;;;;;;;6.00;3.28;;;10.00;99.90;;;;;;5051499;28;20045;-71
2023/03/23 00:08:20;;;;;;;5.50;3.63;;;10.30;99.90;;;;;;5052576;28;20049;-72
2023/03/23 00:10:52;;;;;;;7.10;4.53;;;10.00;99.90;;;;;;5025499;28;20092;-72
2023/03/23 00:13:20;;;;;;;7.75;5.30;;;10.00;99.90;;;;;;5036113;28;20077;-72
2023/03/23 00:15:49;;;;;;;9.18;6.35;;;10.00;99.90;;;;;;5038099;28;20044;-71
2023/03/23 00:18:22;;;;;;;9.68;6.75;;;10.10;99.90;;;;;;5055971;28;20045;-71
2023/03/23 00:20:55;;;;;;;10.43;6.93;;;10.20;99.90;;;;;;5055125;28;20037;-71
2023/03/23 00:23:23;;;;;;;10.90;7.18;;;10.20;99.90;;;;;;5052227;28;20049;-72
2023/03/23 00:25:57;;;;;;;10.10;7.35;;;10.20;99.90;;;;;;5034882;28;20100;-72
2023/03/23 00:28:26;;;;;;;12.93;8.98;;;10.30;99.90;;;;;;5052210;28;20091;-71
2023/03/23 00:31:21;;;;;;;13.32;8.85;;;10.30;99.90;;;;;;5052438;28;20360;-72
2023/03/23 00:33:46;;;;;;;13.32;9.30;;;10.30;99.90;;;;;;5013480;28;20143;-72
2023/03/23 00:36:13;;;;;;;12.50;9.10;;;10.40;99.90;;;;;;5034351;28;20128;-72
2023/03/23 00:38:43;;;;;;;14.27;10.27;;;10.40;99.90;;;;;;5030649;28;20046;-72
2023/03/23 00:41:11;;;;;;;16.95;10.48;;;10.40;99.90;;;;;;5032658;28;20102;-72
2023/03/23 00:43:38;;;;;;;16.42;10.60;;;10.30;99.90;;;;;;5030073;28;20049;-72
2023/03/23 00:46:09;;;;;;;13.98;9.45;;;10.20;99.90;;;;;;5032481;28;20053;-72
2023/03/23 00:48:36;;;;;;;14.52;9.65;;;10.30;99.90;;;;;;5032462;28;20041;-72
2023/03/23 00:51:05;;;;;;;16.90;11.57;;;10.30;99.90;;;;;;5032017;28;20099;-72
2023/03/23 00:53:32;;;;;;;17.08;11.57;;;10.30;99.90;;;;;;5032294;28;20099;-71
2023/03/23 00:55:58;;;;;;;18.30;12.43;;;10.30;99.90;;;;;;5031225;28;20056;-72
2023/03/23 00:58:24;;;;;;;19.60;13.25;;;10.20;99.90;;;;;;5029692;28;20041;-74
2023/03/23 01:00:53;;;;;;;21.98;12.45;;;10.20;99.90;;;;;;5032482;28;20060;-72
2023/03/23 01:03:19;;;;;;;20.08;11.95;;;10.20;99.90;;;;;;5032156;28;20045;-71
2023/03/23 01:05:47;;;;;;;21.52;13.30;;;10.10;99.90;;;;;;5031752;28;20038;-72
2023/03/23 01:08:14;;;;;;;19.73;13.10;;;10.10;99.90;;;;;;5032438;28;20072;-71
2023/03/23 01:10:40;;;;;;;16.13;11.40;;;10.10;99.90;;;;;;5031373;28;20488;-71
2023/03/23 01:13:07;;;;;;;13.73;9.48;;;10.10;99.90;;;;;;5031170;28;20477;-72
2023/03/23 01:15:33;;;;;;;12.40;7.82;;;10.20;99.90;;;;;;5030364;28;20081;-72
2023/03/23 01:18:02;;;;;;;12.90;9.02;;;10.20;99.90;;;;;;5030258;28;20053;-71
2023/03/23 01:20:31;;;;;;;15.45;8.68;;;10.20;99.90;;;;;;5031065;28;20063;-72
2023/03/23 01:23:00;;;;;;;15.13;10.20;;;10.20;99.90;;;;;;5033125;28;20408;-72
2023/03/23 01:25:30;;;;;;;13.73;8.82;;;10.20;99.90;;;;;;5033366;28;20063;-72
2023/03/23 01:27:57;;;;;;;14.50;9.95;;;10.40;99.90;;;;;;5035004;28;20509;-72
2023/03/23 01:30:23;;;;;;;15.70;9.60;;;10.40;99.90;;;;;;5034465;28;20110;-71
2023/03/23 01:32:49;;;;;;;16.90;9.15;;;10.40;99.90;;;;;;5033875;28;20124;-71
2023/03/23 01:35:15;;;;;;;12.98;9.23;;;10.40;99.90;;;;;;5037100;28;20104;-72
2023/03/23 01:37:42;;;;;;;12.32;8.02;;;10.40;99.90;;;;;;5034135;28;20416;-72
2023/03/23 01:40:08;;;;;;;12.02;7.60;;;10.50;99.90;;;;;;5033778;28;20049;-71
2023/03/23 01:42:36;;;;;;;14.32;7.72;;;10.50;99.90;;;;;;5035631;28;20434;-72
2023/03/23 01:45:20;;;;;;;12.75;6.90;;;10.40;99.90;;;;;;5033592;28;20041;-72
2023/03/23 01:47:55;;;;;;;9.57;6.32;;;10.60;99.90;;;;;;5033337;28;20099;-71
2023/03/23 01:50:23;;;;;;;14.85;8.02;;;10.60;99.90;;;;;;5033969;28;20052;-72
2023/03/23 01:52:52;;;;;;;15.88;8.30;;;10.60;99.90;;;;;;5033420;28;20053;-72
2023/03/23 01:55:19;;;;;;;11.20;6.35;;;10.60;99.90;;;;;;5035533;28;20046;-71
2023/03/23 01:57:48;;;;;;;10.52;6.40;;;10.70;99.90;;;;;;5035087;28;20132;-71
2023/03/23 02:21:38;;;;;;;8.63;5.38;;;10.70;99.90;;;;;;6168408;22;20023;-73
2023/03/23 02:24:41;;;;;;;10.55;5.40;;;10.80;99.90;;;;;;5068591;23;20054;-73
2023/03/23 02:27:43;;;;;;;9.23;5.78;;;10.70;99.90;;;;;;5014803;28;20065;-73
2023/03/23 02:30:33;;;;;;;8.77;4.90;;;10.70;99.90;;;;;;5014282;28;20045;-73
2023/03/23 02:33:18;;;;;;;9.20;4.95;;;10.70;99.90;;;;;;5013954;28;20110;-73
2023/03/23 02:35:47;;;;;;;10.45;4.72;;;10.80;99.90;;;;;;5011960;28;20056;-73
2023/03/23 02:38:22;;;;;;;10.68;4.75;;;10.70;99.90;;;;;;5015007;28;20045;-73
2023/03/23 02:40:53;;;;;;;10.98;5.20;;;10.70;99.90;;;;;;5012823;28;20409;-73
2023/03/23 02:43:23;;;;;;;8.48;5.00;;;10.60;99.90;;;;;;5013647;28;20054;-73
2023/03/23 02:45:51;;;;;;;7.13;3.83;;;10.70;99.90;;;;;;5013615;28;20049;-73
2023/03/23 02:48:19;;;;;;;9.93;3.85;;;10.80;99.90;;;;;;5014754;28;20053;-73
2023/03/23 02:50:50;;;;;;;7.15;3.90;;;10.90;99.90;;;;;;5013653;28;20034;-73
2023/03/23 02:53:23;;;;;;;7.45;4.22;;;10.80;99.90;;;;;;5013148;28;20054;-73
2023/03/23 02:55:52;;;;;;;8.40;4.30;;;10.70;99.90;;;;;;5012808;28;20037;-72
2023/03/23 02:58:19;;;;;;;10.70;4.93;;;10.70;99.90;;;;;;5013291;28;20484;-72
2023/03/23 03:00:49;;;;;;;7.95;4.20;;;10.60;99.90;;;;;;5014431;28;20068;-72
2023/03/23 03:03:23;;;;;;;6.15;3.50;;;10.70;99.90;;;;;;5012689;28;20572;-72
2023/03/23 03:06:14;;;;;;;10.30;4.43;;;10.80;99.90;;;;;;5012882;28;20046;-72
2023/03/23 03:08:48;;;;;;;7.07;3.63;;;10.70;99.90;;;;;;5012720;28;20054;-72
2023/03/23 03:11:17;;;;;;;6.78;3.78;;;10.70;99.90;;;;;;5012236;28;20121;-72
2023/03/23 03:14:10;;;;;;;5.50;3.58;;;10.70;99.90;;;;;;5014056;28;20092;-73
2023/03/23 03:22:13;;;;;;;9.20;4.43;;;10.60;99.90;;;;;;5246611;22;20054;-72
2023/03/23 03:24:42;;;;;;;7.78;3.42;;;10.40;99.90;;;;;;5032848;28;20099;-72
2023/03/23 03:35:33;;;;;;;9.73;3.15;;;10.40;99.90;;;;;;5467956;22;20053;-72
2023/03/23 03:38:07;;;;;;;6.70;2.75;;;11.20;99.90;;;;;;5023938;28;20114;-72
2023/03/23 03:40:32;;;;;;;9.05;3.05;;;10.30;99.90;;;;;;5029715;28;20045;-72
2023/03/23 03:42:58;;;;;;;6.82;2.00;;;10.20;99.90;;;;;;5035296;28;20049;-73
2023/03/23 03:45:24;;;;;;;;;;;10.10;99.90;;;;;;5052577;28;20044;-73
2023/03/23 03:47:50;;;;;;;5.50;2.10;;;10.10;99.90;;;;;;5035221;28;19975;-73
2023/03/23 03:50:16;;;;;;;9.35;2.40;;;10.10;99.90;;;;;;5034920;28;20393;-73
2023/03/23 03:52:42;;;;;;;8.13;2.75;;;10.10;99.90;;;;;;5033654;28;20041;-73
2023/03/23 03:55:10;;;;;;;8.88;2.60;;;10.10;99.90;;;;;;5035289;28;20053;-72
2023/03/23 03:57:36;;;;;;;10.18;2.72;;;10.10;99.90;;;;;;5052696;28;20041;-72
2023/03/23 04:00:14;;;;;;;8.23;2.92;;;10.00;99.90;;;;;;5034583;28;20088;-73
2023/03/23 04:02:41;;;;;;;8.10;2.63;;;10.10;99.90;;;;;;5051946;28;20508;-73
2023/03/23 04:05:08;;;;;;;5.68;2.50;;;10.20;99.90;;;;;;5034801;28;20037;-73
2023/03/23 04:07:37;;;;;;;10.10;2.78;;;10.40;99.90;;;;;;5033797;28;20045;-73
2023/03/23 04:10:05;;;;;;;9.18;2.35;;;10.30;99.90;;;;;;5053034;28;20052;-73
2023/03/23 04:12:31;;;;;;;6.70;2.40;;;10.20;99.90;;;;;;5034415;28;20056;-73
2023/03/23 04:17:32;;;;;;;9.35;2.03;;;10.30;99.90;;;;;;5150146;22;20064;-73
2023/03/23 04:20:01;;;;;;;7.43;2.08;;;10.40;99.90;;;;;;5034529;28;20052;-73
2023/03/23 04:22:30;;;;;;;9.90;2.25;;;10.40;99.90;;;;;;5051463;28;20052;-73
2023/03/23 04:25:02;;;;;;;11.15;3.60;;;10.40;99.90;;;;;;5034502;28;20049;-73
2023/03/23 04:27:28;;;;;;;11.90;2.08;;;10.40;99.90;;;;;;5051789;28;20041;-72
2023/03/23 04:30:02;;;;;;;11.02;2.70;;;10.30;99.90;;;;;;5053175;28;20048;-73
2023/03/23 04:32:28;;;;;;;11.18;2.08;;;10.30;99.90;;;;;;5056606;28;20052;-72
2023/03/23 04:34:57;;;;;;;13.00;3.00;;;10.20;99.90;;;;;;5038983;28;20045;-72
2023/03/23 04:40:00;;;;;;;11.07;2.30;;;10.10;99.90;;;;;;5653897;23;20058;-73
2023/03/23 04:42:31;;;;;;;15.80;2.88;;;10.30;99.90;;;;;;4994191;28;20088;-72
2023/03/23 04:44:59;;;;;;;8.25;2.20;;;10.10;99.90;;;;;;5013032;28;20041;-72
2023/03/23 04:47:29;;;;;;;16.02;2.55;;;10.10;99.90;;;;;;4994346;28;20038;-72
2023/03/23 04:49:57;;;;;;;10.25;2.60;;;10.00;99.90;;;;;;4993175;28;20599;-73
2023/03/23 04:52:26;;;;;;;17.52;3.38;;;10.00;99.90;;;;;;4994319;28;20093;-73
2023/03/23 04:55:01;;;;;;;13.00;2.63;;;10.00;99.90;;;;;;5012598;28;20489;-73
2023/03/23 04:57:27;;;;;;;13.23;2.92;;;9.90;99.90;;;;;;5254425;22;20024;-73
2023/03/23 04:59:59;;;;;;;13.48;3.03;;;10.00;99.90;;;;;;4997112;28;20122;-73
2023/03/23 05:02:29;;;;;;;16.02;3.20;;;9.90;99.90;;;;;;4993822;28;20050;-73
2023/03/23 05:04:57;;;;;;;15.82;2.78;;;9.80;99.90;;;;;;5015811;28;20046;-73
2023/03/23 05:07:23;;;;;;;15.32;2.85;;;9.80;99.90;;;;;;4998606;28;20061;-73
2023/03/23 05:09:51;;;;;;;11.23;3.20;;;10.00;99.90;;;;;;4997668;28;20049;-73
2023/03/23 05:12:17;;;;;;;12.02;2.85;;;9.90;99.90;;;;;;4998914;28;20472;-75
2023/03/23 05:14:43;;;;;;;17.67;2.90;;;9.90;99.90;;;;;;4998402;28;20089;-74
2023/03/23 05:17:12;;;;;;;20.42;3.40;;;10.10;99.90;;;;;;4997798;28;20049;-73
2023/03/23 05:19:38;;;;;;;18.00;3.63;;;9.80;99.90;;;;;;5015712;28;20054;-72
2023/03/23 05:22:03;;;;;;;;;;;9.70;99.90;;;;;;5016748;28;20064;-73
2023/03/23 05:24:32;;;;;;;16.88;3.70;;;9.70;99.90;;;;;;5013831;28;20379;-71
2023/03/23 05:26:59;;;;;;;17.38;3.30;;;9.70;99.90;;;;;;4998427;28;20113;-73
2023/03/23 05:29:26;;;;;;;18.23;4.10;;;9.70;99.90;;;;;;5014312;28;20093;-72
2023/03/23 05:31:55;;;;;;;19.58;4.38;;;9.60;99.90;;;;;;4997604;28;20045;-72
2023/03/23 05:34:21;;;;;;;20.33;3.70;;;9.80;99.90;;;;;;4997847;28;20057;-73
2023/03/23 05:36:47;;;;;;;;;;;9.90;99.90;;;;;;4998325;28;20131;-73
2023/03/23 05:39:14;;;;;;;11.97;2.83;;;9.90;99.90;;;;;;4996997;28;19928;-73
2023/03/23 05:41:40;;;;;;;15.18;3.60;;;9.80;99.90;;;;;;4989531;28;20049;-73
2023/03/23 05:44:05;;;;;;;;;;;9.80;99.90;;;;;;5005444;28;20058;-80
2023/03/23 05:46:32;;;;;;;13.80;3.28;;;9.80;99.90;;;;;;4995062;28;19968;-80
2023/03/23 05:48:57;;;;;;;13.25;2.65;;;9.80;99.90;;;;;;4998848;28;20414;-79
2023/03/23 05:51:23;;;;;;;;;;;9.90;99.90;;;;;;5016282;28;20049;-79
2023/03/23 05:53:55;;;;;;;14.95;3.40;;;9.80;99.90;;;;;;5015212;28;19921;-84
2023/03/23 05:56:24;;;;;;;13.35;2.38;;;9.80;99.90;;;;;;4998359;28;20038;-87
2023/03/23 05:58:50;;;;;;;18.25;3.25;;;9.70;99.90;;;;;;5015217;28;20501;-78
2023/03/23 06:01:16;;;;;;;;;;;9.60;99.90;;;;;;5016377;28;20125;-77
2023/03/23 06:03:41;;;;;;;8.23;2.53;;;9.60;99.90;;;;;;4982696;28;19981;-73
2023/03/23 06:06:11;;;;;;;9.88;2.70;;;9.40;99.90;;;;;;4982454;28;20402;-78
2023/03/23 06:08:37;;;;;;;8.27;2.50;;;9.30;99.90;;;;;;5001582;28;20122;-77
2023/03/23 06:11:06;;;;;;;11.88;2.70;;;9.20;99.90;;;;;;4982373;28;20042;-80
2023/03/23 06:13:36;;;;;;;8.38;2.30;;;9.20;99.90;;;;;;5000251;28;20058;-77
2023/03/23 06:32:53;;;;;;;11.02;2.17;;;8.90;99.90;;;;;;5054922;28;20052;-86
2023/03/23 06:35:51;;;;;;;10.38;2.50;;;9.10;99.90;;;;;;5037481;28;20172;-82
2023/03/23 06:55:34;;;;;;;18.25;3.17;;;8.30;99.90;;;;;;5032683;28;20060;-79
2023/03/23 07:02:24;;;;;;;21.95;4.05;;;9.70;99.90;;;;;;5034080;28;20090;-80
2023/03/23 07:22:39;;;;;;;31.60;5.80;;;10.00;99.90;;;;;;5232746;22;20061;-86
2023/03/23 07:25:20;;;;;;;28.20;4.68;;;9.40;99.90;;;;;;5008607;28;20101;-78
2023/03/23 07:31:58;;;;;;;22.63;4.90;;;10.00;99.90;;;;;;4942990;29;20066;-76
2023/03/23 07:38:42;;;;;;;23.67;4.45;;;9.40;99.90;;;;;;4923582;29;20047;-80
2023/03/23 07:51:17;;;;;;;21.70;4.05;;;12.50;99.90;;;;;;5033115;28;20393;-76
2023/03/23 07:57:26;;;;;;;27.92;4.05;;;12.10;99.90;;;;;;5033567;28;20080;-90
2023/03/23 08:00:22;;;;;;;17.50;3.70;;;12.10;99.90;;;;;;5014621;28;20051;-79
2023/03/23 08:03:19;;;;;;;20.70;3.90;;;11.60;99.90;;;;;;5015677;28;20056;-82
2023/03/23 08:06:18;;;;;;;19.65;4.20;;;13.40;99.90;;;;;;5014765;28;20049;-81
2023/03/23 08:14:57;;;;;;;20.25;4.03;;;12.70;99.90;;;;;;5952351;22;20486;-84
2023/03/23 08:17:23;;;;;;;20.60;3.28;;;13.80;99.90;;;;;;5012547;28;20084;-76
2023/03/23 08:19:52;;;;;;;14.82;3.50;;;13.80;99.90;;;;;;5013578;28;20057;-79
2023/03/23 08:22:21;;;;;;;21.15;4.05;;;13.90;99.90;;;;;;5015015;28;20045;-77
2023/03/23 08:24:46;;;;;;;17.02;3.60;;;14.50;99.90;;;;;;5013660;28;20133;-76
2023/03/23 08:27:15;;;;;;;16.35;3.88;;;15.20;99.90;;;;;;5013503;28;20136;-76
2023/03/23 08:29:44;;;;;;;20.80;4.03;;;15.70;99.90;;;;;;4995669;28;20370;-77
2023/03/23 08:32:10;;;;;;;15.10;3.78;;;16.40;99.90;;;;;;4995443;28;20493;-76
2023/03/23 08:34:36;;;;;;;19.67;3.70;;;16.80;99.90;;;;;;4994380;28;20092;-77
2023/03/23 08:37:02;;;;;;;19.92;4.00;;;17.30;99.90;;;;;;4995726;28;20050;-77
2023/03/23 08:39:31;;;;;;;23.52;4.25;;;17.40;99.90;;;;;;5007919;28;20045;-76
2023/03/23 08:41:57;;;;;;;21.20;4.72;;;17.60;99.90;;;;;;5012482;28;20512;-77
2023/03/23 08:44:25;;;;;;;19.10;3.97;;;17.90;99.90;;;;;;5012477;28;20073;-76
2023/03/23 08:46:57;;;;;;;19.13;4.68;;;18.00;99.90;;;;;;5014201;28;20050;-76
2023/03/23 08:49:23;;;;;;;18.05;4.28;;;18.50;99.90;;;;;;5017981;28;20107;-76
2023/03/23 08:51:52;;;;;;;19.85;4.25;;;18.60;99.90;;;;;;5035375;28;20041;-76
2023/03/23 08:54:18;;;;;;;19.33;4.35;;;18.70;99.90;;;;;;5019426;28;20064;-77
2023/03/23 08:56:47;;;;;;;13.75;4.05;;;18.40;99.90;;;;;;5019867;28;20392;-76
2023/03/23 08:59:13;;;;;;;18.38;4.53;;;18.10;99.90;;;;;;5021968;28;20045;-77
2023/03/23 09:01:39;;;;;;;20.98;4.30;;;18.60;99.90;;;;;;5014819;28;20057;-77
2023/03/23 09:23:17;;;;;;;18.67;4.15;;;18.10;99.90;;;;;;5018206;28;20048;-75
2023/03/23 09:25:45;;;;;;;16.00;3.50;;;17.80;99.90;;;;;;5028663;28;20037;-76
2023/03/23 09:28:11;;;;;;;16.83;3.92;;;18.50;99.90;;;;;;5014126;28;20049;-75
2023/03/23 09:30:38;;;;;;;17.58;3.53;;;18.10;99.90;;;;;;5030521;28;20164;-75
2023/03/23 09:33:05;;;;;;;15.95;3.53;;;17.80;99.90;;;;;;5014070;28;20774;-78
2023/03/23 09:35:34;;;;;;;17.95;3.80;;;17.90;99.90;;;;;;5013472;28;20496;-74
2023/03/23 09:38:00;;;;;;;17.23;4.10;;;18.30;99.90;;;;;;5026517;28;20560;-73
2023/03/23 09:40:33;;;;;;;16.27;3.88;;;19.20;99.90;;;;;;5078177;22;20053;-74
2023/03/23 09:47:33;;;;;;;19.77;3.78;;;19.20;98.40;;;;;;5015613;28;20548;-73
2023/03/23 09:50:26;;;;;;;15.80;3.75;;;18.70;99.50;;;;;;5183935;23;20453;-74
2023/03/23 09:52:58;;;;;;;15.15;3.30;;;18.30;99.90;;;;;;4998110;28;20046;-74
2023/03/23 09:55:25;;;;;;;18.92;3.60;;;18.90;99.20;;;;;;4998051;28;20034;-74
2023/03/23 09:58:14;;;;;;;14.43;4.05;;;18.50;99.90;;;;;;4997649;28;20091;-74
2023/03/23 10:00:45;;;;;;;17.27;3.80;;;18.90;98.20;;;;;;5015305;28;20053;-73
2023/03/23 10:03:24;;;;;;;15.48;3.40;;;18.60;98.60;;;;;;5015718;28;20038;-73
2023/03/23 10:05:53;;;;;;;16.48;4.00;;;18.90;98.80;;;;;;5009890;28;20063;-74
2023/03/23 10:08:23;;;;;;;17.52;4.07;;;17.90;99.50;;;;;;4997479;28;20041;-75
2023/03/23 10:11:12;;;;;;;17.08;4.15;;;18.00;99.90;;;;;;4997958;28;20545;-75
2023/03/23 10:14:02;;;;;;;16.98;3.72;;;18.20;99.60;;;;;;4997152;28;20077;-76
2023/03/23 10:16:41;;;;;;;14.25;3.50;;;17.90;99.90;;;;;;4983272;28;20052;-77
2023/03/23 10:19:24;;;;;;;15.02;3.65;;;18.10;99.90;;;;;;4996568;28;20076;-75
2023/03/23 10:21:54;;;;;;;16.63;3.90;;;18.70;99.40;;;;;;4997491;28;20045;-76
2023/03/23 10:24:27;;;;;;;18.95;3.83;;;19.10;98.60;;;;;;5015267;28;20038;-76
2023/03/23 10:27:21;;;;;;;14.20;3.45;;;18.30;98.10;;;;;;5002138;28;20072;-77
2023/03/23 10:29:54;;;;;;;17.77;3.42;;;17.40;99.40;;;;;;5015831;28;20044;-73
2023/03/23 10:32:45;;;;;;;14.98;3.75;;;16.90;99.90;;;;;;5034101;28;20071;-73
2023/03/23 10:35:15;;;;;;;13.25;3.38;;;16.70;99.90;;;;;;5006941;28;20497;-74
2023/03/23 10:37:50;;;;;;;14.93;3.00;;;16.70;99.90;;;;;;5000861;28;20068;-74
2023/03/23 10:40:20;;;;;;;19.73;3.47;;;16.90;99.90;;;;;;5009795;28;20053;-73
2023/03/23 10:42:47;;;;;;;16.05;3.33;;;16.40;99.90;;;;;;5003624;28;20042;-73
2023/03/23 10:49:18;;;;;;;21.30;3.92;;;17.50;99.90;;;;;;4933441;29;20050;-73
2023/03/23 10:51:49;;;;;;;24.25;3.83;;;16.30;99.90;;;;;;4919585;28;20058;-74
2023/03/23 10:54:27;;;;;;;18.85;4.00;;;16.30;99.90;;;;;;4993173;28;20050;-74
2023/03/23 10:56:55;;;;;;;18.90;3.40;;;16.70;99.90;;;;;;4994238;28;20093;-72
2023/03/23 10:59:28;;;;;;;17.77;3.63;;;16.70;99.90;;;;;;5001802;28;20042;-73
2023/03/23 11:02:03;;;;;;;11.88;3.10;;;16.40;99.90;;;;;;4977122;28;20081;-73
2023/03/23 11:04:31;;;;;;;14.68;3.20;;;17.00;99.90;;;;;;4994576;28;20088;-73
2023/03/23 11:07:03;;;;;;;12.40;3.60;;;17.10;99.90;;;;;;4994604;28;20053;-72
2023/03/23 11:09:51;;;;;;;13.20;3.55;;;17.20;99.90;;;;;;4993673;28;20478;-73
2023/03/23 11:12:22;;;;;;;15.23;3.50;;;17.90;99.90;;;;;;4994719;28;20486;-73
2023/03/23 11:14:49;;;;;;;14.52;3.22;;;18.30;99.20;;;;;;4994770;28;20049;-73
2023/03/23 11:17:26;;;;;;;18.35;3.70;;;18.50;99.50;;;;;;5007238;28;20049;-72
2023/03/23 11:19:56;;;;;;;11.90;2.75;;;17.90;98.30;;;;;;4996470;28;20088;-73
2023/03/23 11:22:32;;;;;;;14.38;3.28;;;18.10;98.90;;;;;;5012819;28;20065;-72
2023/03/23 11:25:04;;;;;;;14.38;2.90;;;17.80;99.10;;;;;;5012886;28;20064;-73
2023/03/23 11:27:30;;;;;;;15.63;3.45;;;17.60;99.90;;;;;;5004048;28;20489;-72
2023/03/23 11:30:09;;;;;;;11.70;2.33;;;16.70;99.90;;;;;;4995711;28;20042;-72
2023/03/23 11:32:36;;;;;;;11.90;3.05;;;16.20;99.90;;;;;;5012683;28;20103;-73
2023/03/23 11:35:15;;;;;;;15.80;3.55;;;16.30;99.90;;;;;;5013850;28;20038;-72
2023/03/23 11:37:48;;;;;;;13.10;3.08;;;16.50;99.90;;;;;;5011932;28;20084;-73
2023/03/23 11:40:21;;;;;;;9.82;2.63;;;16.30;99.90;;;;;;5013890;28;20054;-72
2023/03/23 11:42:57;;;;;;;14.77;2.75;;;16.70;99.90;;;;;;5011270;28;20038;-72
2023/03/23 11:45:36;;;;;;;13.60;2.85;;;17.50;99.70;;;;;;4994987;28;20062;-72
2023/03/23 11:48:27;;;;;;;10.65;2.75;;;18.30;98.80;;;;;;5013649;28;20046;-72
2023/03/23 11:51:14;;;;;;;15.63;3.28;;;18.90;97.40;;;;;;4995459;28;20057;-73
2023/03/23 11:54:02;;;;;;;10.80;2.83;;;18.70;97.50;;;;;;5007438;28;20056;-72
2023/03/23 11:56:40;;;;;;;8.73;2.45;;;18.40;98.40;;;;;;4993437;28;20486;-72
2023/03/23 11:59:13;;;;;;;14.77;3.05;;;17.70;98.40;;;;;;4993009;28;20042;-72
2023/03/23 12:01:54;;;;;;;11.38;2.55;;;17.10;99.70;;;;;;4998757;28;20084;-72
2023/03/23 12:04:19;;;;;;;14.85;2.80;;;16.90;99.90;;;;;;4983651;28;20385;-74
2023/03/23 12:07:11;;;;;;;16.13;3.35;;;16.40;99.90;;;;;;5012669;28;20042;-73
2023/03/23 12:09:50;;;;;;;13.23;2.95;;;15.70;99.90;;;;;;4995353;28;20042;-73
2023/03/23 12:12:35;;;;;;;13.85;3.15;;;16.90;99.90;;;;;;4979299;28;20046;-72
2023/03/23 12:15:23;;;;;;;13.18;2.92;;;18.50;99.90;;;;;;4993230;28;20508;-71
2023/03/23 12:18:17;;;;;;;11.93;2.60;;;18.60;99.60;;;;;;4972252;28;20113;-71
2023/03/23 12:21:11;;;;;;;20.75;3.30;;;18.70;99.00;;;;;;4957866;28;20039;-70
2023/03/23 12:23:56;;;;;;;13.95;3.08;;;19.00;98.70;;;;;;4997676;28;20042;-71
2023/03/23 12:26:31;;;;;;;16.80;3.67;;;19.20;99.30;;;;;;4994433;28;20046;-74
2023/03/23 12:29:06;;;;;;;15.03;3.03;;;18.80;99.10;;;;;;4994761;28;20112;-71
2023/03/23 12:32:09;;;;;;;18.73;3.55;;;18.60;98.90;;;;;;5006858;28;20042;-72
2023/03/23 12:34:53;;;;;;;14.13;3.33;;;18.70;98.80;;;;;;4977627;28;20056;-72
2023/03/23 12:37:31;;;;;;;13.75;2.85;;;18.20;98.90;;;;;;4975624;28;20173;-72
2023/03/23 12:40:22;;;;;;;12.88;3.03;;;17.60;99.90;;;;;;4974423;28;20050;-73
2023/03/23 12:43:09;;;;;;;18.55;3.17;;;17.20;99.90;;;;;;4946305;28;20057;-75
2023/03/23 12:46:05;;;;;;;11.80;2.97;;;17.00;99.90;;;;;;4968906;28;20126;-72
2023/03/23 12:48:35;;;;;;;18.88;3.55;;;17.50;99.90;;;;;;4990714;28;20050;-72
2023/03/23 12:51:04;;;;;;;14.85;2.97;;;18.00;99.90;;;;;;4988121;28;20097;-72
2023/03/23 12:53:58;;;;;;;14.60;3.60;;;18.20;99.90;;;;;;4972939;28;20039;-73
2023/03/23 12:56:39;;;;;;;11.15;2.67;;;18.20;99.90;;;;;;4947727;28;20058;-73
2023/03/23 12:59:17;;;;;;;8.82;2.63;;;18.90;99.90;;;;;;4973832;28;20059;-74
2023/03/23 13:01:51;;;;;;;12.13;2.60;;;19.20;98.10;;;;;;4955872;28;20043;-75
2023/03/23 13:04:23;;;;;;;10.43;2.28;;;18.30;99.20;;;;;;4956622;28;20133;-74
2023/03/23 13:10:10;;;;;;;15.20;3.13;;;17.90;99.90;;;;;;5218091;23;20056;-76
2023/03/23 13:12:39;;;;;;;15.75;3.00;;;17.80;99.90;;;;;;5005670;28;20382;-73
2023/03/23 13:15:46;;;;;;;9.07;2.28;;;17.20;99.90;;;;;;5031589;28;20077;-75
2023/03/23 13:18:45;;;;;;;13.93;3.23;;;16.50;99.90;;;;;;4996266;28;20050;-74
2023/03/23 13:21:20;;;;;;;17.85;4.47;;;16.40;99.90;;;;;;5002945;28;20053;-74
2023/03/23 13:23:54;;;;;;;14.27;2.70;;;16.20;99.90;;;;;;5022080;28;20045;-72
2023/03/23 13:26:25;;;;;;;16.15;3.90;;;16.30;99.90;;;;;;5018359;28;20107;-73
2023/03/23 13:28:53;;;;;;;13.25;3.17;;;16.30;99.90;;;;;;5035277;28;20057;-73
2023/03/23 13:31:35;;;;;;;13.77;2.75;;;16.00;99.90;;;;;;5017263;28;20041;-75
2023/03/23 13:34:06;;;;;;;18.48;3.63;;;16.10;99.90;;;;;;5017846;28;20042;-75
2023/03/23 13:36:42;;;;;;;18.23;3.03;;;15.90;99.90;;;;;;5039500;28;20135;-76
2023/03/23 13:39:46;;;;;;;17.42;2.90;;;15.70;99.90;;;;;;5023552;28;20133;-77
2023/03/23 13:42:12;;;;;;;13.35;2.85;;;15.40;99.90;;;;;;5023707;28;20064;-77
2023/03/23 13:45:08;;;;;;;11.38;3.13;;;15.70;99.90;;;;;;5030479;28;20049;-79
2023/03/23 13:47:41;;;;;;;14.90;3.20;;;15.90;99.90;;;;;;5040526;28;20453;-80
2023/03/23 13:50:28;;;;;;;15.07;2.92;;;16.00;99.90;;;;;;5036133;28;20045;-79
2023/03/23 13:52:55;;;;;;;;;;;15.90;99.90;;;;;;5028930;28;20049;-76
2023/03/23 13:55:36;;;;;;;11.38;2.50;;;16.10;99.90;;;;;;5025867;28;20356;-77
2023/03/23 13:58:01;;;;;;;10.88;2.67;;;15.90;99.90;;;;;;5017904;28;20049;-77
2023/03/23 14:00:49;;;;;;;13.35;2.90;;;15.80;99.90;;;;;;5015309;28;20044;-78
2023/03/23 14:03:16;;;;;;;11.82;2.85;;;15.50;99.90;;;;;;5017774;28;20049;-77
2023/03/23 14:05:50;;;;;;;7.47;2.63;;;15.40;99.90;;;;;;5010278;28;20074;-77
2023/03/23 14:08:28;;;;;;;7.95;2.45;;;15.60;99.90;;;;;;5007320;28;20049;-77
2023/03/23 14:10:58;;;;;;;9.23;2.65;;;15.50;99.90;;;;;;5012777;28;20118;-77
2023/03/23 14:13:42;;;;;;;11.77;2.53;;;15.40;99.90;;;;;;5009031;28;20033;-74
2023/03/23 14:16:23;;;;;;;11.68;2.83;;;15.20;99.90;;;;;;5034347;28;20038;-74
2023/03/23 14:19:01;;;;;;;10.20;2.40;;;15.30;99.90;;;;;;5014470;28;20458;-76
2023/03/23 14:21:38;;;;;;;9.70;2.22;;;15.40;99.90;;;;;;5038613;28;20038;-78
2023/03/23 14:24:09;;;;;;;11.15;3.28;;;15.30;99.90;;;;;;5022165;28;20045;-80
2023/03/23 14:26:38;;;;;;;10.32;2.28;;;15.20;99.90;;;;;;5030840;28;20037;-81
2023/03/23 14:29:05;;;;;;;11.23;2.47;;;15.10;99.90;;;;;;5017117;28;20051;-85
2023/03/23 14:31:31;;;;;;;12.65;3.38;;;15.20;99.90;;;;;;5032764;28;20045;-82
2023/03/23 14:34:02;;;;;;;11.23;2.67;;;15.20;99.90;;;;;;5034185;28;20052;-79
2023/03/23 14:36:30;;;;;;;8.82;2.58;;;15.20;99.90;;;;;;5034500;28;20048;-80
2023/03/23 14:39:15;;;;;;;10.00;2.22;;;15.30;99.90;;;;;;5034786;28;20041;-79
2023/03/23 14:41:43;;;;;;;12.15;2.45;;;15.20;99.90;;;;;;5015473;28;20041;-78
2023/03/23 14:44:16;;;;;;;13.57;2.63;;;15.10;99.90;;;;;;5030341;28;20045;-78
2023/03/23 14:46:44;;;;;;;11.65;2.63;;;15.10;99.90;;;;;;5035539;28;20371;-77
2023/03/23 14:49:15;;;;;;;14.57;3.30;;;14.90;99.90;;;;;;5030874;28;20095;-75
2023/03/23 14:52:11;;;;;;;9.35;2.33;;;14.80;99.90;;;;;;5013781;28;20041;-79
2023/03/23 14:54:38;;;;;;;15.47;2.53;;;14.90;99.90;;;;;;5024710;28;20077;-80
2023/03/23 14:57:17;;;;;;;13.50;2.08;;;15.00;99.90;;;;;;5015353;28;20303;-77
2023/03/23 14:59:51;;;;;;;13.90;2.40;;;15.10;99.90;;;;;;5027299;28;20088;-74
2023/03/23 15:02:25;;;;;;;11.48;2.20;;;14.90;99.90;;;;;;4995354;28;20034;-74
2023/03/23 15:05:14;;;;;;;10.20;2.15;;;14.90;99.90;;;;;;4996124;28;20045;-77
2023/03/23 15:07:43;;;;;;;6.43;1.80;;;15.00;99.90;;;;;;5002042;28;20390;-79
2023/03/23 15:10:18;;;;;;;10.10;2.42;;;14.90;99.90;;;;;;5031361;28;20049;-78
2023/03/23 15:12:46;;;;;;;10.75;2.20;;;14.70;99.90;;;;;;5032372;28;20052;-80
2023/03/23 15:15:21;;;;;;;9.90;2.10;;;14.70;99.90;;;;;;5010022;28;20366;-77
2023/03/23 15:17:52;;;;;;;12.25;2.65;;;14.60;99.90;;;;;;5010305;28;20042;-76
2023/03/23 15:20:28;;;;;;;11.32;2.10;;;14.60;99.90;;;;;;5021599;28;20053;-75
2023/03/23 15:23:40;;;;;;;13.80;2.40;;;14.70;99.90;;;;;;5039118;22;20160;-77
2023/03/23 15:33:40;;;;;;;11.60;2.50;;;15.70;99.90;;;;;;5011953;28;20065;-79
2023/03/23 15:39:02;;;;;;;13.57;2.90;;;14.20;99.90;;;;;;5030287;28;20125;-79
2023/03/23 15:41:56;;;;;;;;;;;14.40;99.90;;;;;;5005594;28;20052;-75
2023/03/23 15:48:19;;;;;;;15.60;3.10;;;13.50;99.90;;;;;;4949590;29;20113;-73
2023/03/23 15:50:49;;;;;;;14.50;3.08;;;14.40;99.90;;;;;;4943591;29;20500;-73
2023/03/23 15:53:37;;;;;;;16.85;3.28;;;14.30;99.90;;;;;;4948116;29;20047;-76
2023/03/23 15:56:06;;;;;;;17.00;3.08;;;14.10;99.90;;;;;;4982776;28;20519;-80
2023/03/23 15:58:32;;;;;;;20.08;3.70;;;14.10;99.90;;;;;;5005325;28;20519;-78
2023/03/23 16:01:26;;;;;;;10.48;3.20;;;14.10;99.90;;;;;;5013401;28;20049;-79